createdAt,value
2018-04-14T00:01:48.153Z,11.70
2018-04-14T00:04:15.129Z,11.80
2018-04-14T00:06:42.185Z,11.80
2018-04-14T00:09:09.218Z,11.80
2018-04-14T00:11:36.187Z,11.70
2018-04-14T00:14:03.254Z,11.70
2018-04-14T00:16:30.230Z,11.70
2018-04-14T00:18:57.192Z,11.70
2018-04-14T00:21:24.152Z,11.70
2018-04-14T00:23:51.920Z,11.70
2018-04-14T00:26:18.915Z,11.70
2018-04-14T00:28:46.624Z,11.60
2018-04-14T00:31:13.608Z,11.60
2018-04-14T00:33:40.583Z,11.60
2018-04-14T00:36:08.316Z,11.50
2018-04-14T00:38:35.305Z,11.50
2018-04-14T00:41:02.276Z,11.50
2018-04-14T00:43:31.062Z,11.50
2018-04-14T00:45:58.112Z,11.50
2018-04-14T00:48:25.155Z,11.50
2018-04-14T00:50:52.196Z,11.50
2018-04-14T00:53:25.186Z,11.40
2018-04-14T00:55:52.173Z,11.50
2018-04-14T00:58:19.157Z,11.50
2018-04-14T01:00:46.182Z,11.40
2018-04-14T01:03:13.160Z,11.40
2018-04-14T01:05:40.161Z,11.40
2018-04-14T01:08:07.148Z,11.40
2018-04-14T01:10:34.124Z,11.40
2018-04-14T01:13:01.096Z,11.40
2018-04-14T01:15:28.102Z,11.40
2018-04-14T01:17:55.072Z,11.40
2018-04-14T01:20:22.135Z,11.40
2018-04-14T01:22:49.137Z,11.30
2018-04-14T01:25:16.898Z,11.40
2018-04-14T01:27:43.940Z,11.40
2018-04-14T01:30:10.917Z,11.40
2018-04-14T01:32:37.952Z,11.30
2018-04-14T01:35:05.014Z,11.30
2018-04-14T01:37:32.112Z,11.30
2018-04-14T01:39:59.061Z,11.30
2018-04-14T01:42:26.023Z,11.30
2018-04-14T01:44:53.761Z,11.30
2018-04-14T01:47:20.739Z,11.30
2018-04-14T01:49:47.780Z,11.30
2018-04-14T01:52:14.744Z,11.30
2018-04-14T01:54:41.719Z,11.30
2018-04-14T01:57:08.722Z,11.20
2018-04-14T01:59:35.690Z,11.20
2018-04-14T02:02:02.704Z,11.20
2018-04-14T02:04:29.664Z,11.20
2018-04-14T02:06:57.411Z,11.20
2018-04-14T02:09:24.384Z,11.20
2018-04-14T02:11:51.340Z,11.20
2018-04-14T02:14:18.351Z,11.20
2018-04-14T02:16:45.376Z,11.10
2018-04-14T02:19:12.344Z,11.10
2018-04-14T02:21:39.307Z,11.10
2018-04-14T02:24:06.289Z,11.10
2018-04-14T02:26:33.368Z,11.10
2018-04-14T02:29:00.382Z,11.10
2018-04-14T02:31:28.212Z,11.10
2018-04-14T02:33:55.180Z,11.10
2018-04-14T02:36:22.159Z,11.10
2018-04-14T02:38:50.270Z,11.10
2018-04-14T02:41:17.978Z,11.10
2018-04-14T02:43:44.953Z,11.10
2018-04-14T02:46:11.915Z,11.10
2018-04-14T02:48:39.692Z,11.10
2018-04-14T02:51:06.724Z,11.10
2018-04-14T02:53:33.681Z,11.10
2018-04-14T02:56:00.731Z,11.10
2018-04-14T02:58:27.770Z,11.10
2018-04-14T03:00:55.518Z,11.10
2018-04-14T03:03:22.469Z,11.10
2018-04-14T03:05:49.445Z,11.10
2018-04-14T03:08:17.176Z,11.10
2018-04-14T03:10:44.179Z,11.00
2018-04-14T03:13:11.163Z,11.10
2018-04-14T03:15:38.198Z,11.10
2018-04-14T03:18:06.008Z,11.10
2018-04-14T03:20:33.009Z,11.10
2018-04-14T03:22:59.992Z,11.10
2018-04-14T03:25:27.287Z,11.10
2018-04-14T03:27:54.258Z,11.10
2018-04-14T03:30:21.235Z,11.10
2018-04-14T03:32:48.245Z,11.10
2018-04-14T03:35:16.065Z,11.10
2018-04-14T03:37:43.027Z,11.10
2018-04-14T03:40:10.142Z,11.10
2018-04-14T03:42:37.903Z,11.10
2018-04-14T03:45:04.843Z,11.10
2018-04-14T03:47:31.832Z,11.10
2018-04-14T03:49:58.780Z,11.10
2018-04-14T03:52:25.760Z,11.10
2018-04-14T03:54:52.727Z,11.10
2018-04-14T03:57:19.789Z,11.00
2018-04-14T03:59:46.765Z,11.00
2018-04-14T04:02:13.729Z,11.00
2018-04-14T04:04:40.716Z,11.00
2018-04-14T04:07:08.503Z,11.00
2018-04-14T04:09:35.482Z,11.00
2018-04-14T04:12:02.460Z,11.00
2018-04-14T04:14:30.583Z,11.00
2018-04-14T04:16:57.545Z,11.00
2018-04-14T04:19:31.089Z,11.00
2018-04-14T04:22:03.961Z,11.00
2018-04-14T04:24:37.716Z,11.00
2018-04-14T04:27:04.774Z,10.90
2018-04-14T04:29:31.949Z,11.00
2018-04-14T04:31:58.960Z,11.00
2018-04-14T04:34:26.697Z,11.00
2018-04-14T04:36:53.684Z,10.90
2018-04-14T04:39:21.436Z,10.90
2018-04-14T04:41:48.404Z,10.90
2018-04-14T04:44:15.459Z,10.90
2018-04-14T04:46:42.451Z,11.00
2018-04-14T04:49:09.418Z,11.00
2018-04-14T04:51:36.776Z,11.00
2018-04-14T04:54:03.741Z,11.00
2018-04-14T04:56:30.769Z,11.00
2018-04-14T04:58:58.588Z,11.00
2018-04-14T05:01:25.577Z,11.00
2018-04-14T05:03:52.600Z,11.00
2018-04-14T05:06:19.569Z,11.00
2018-04-14T05:08:46.614Z,11.00
2018-04-14T05:11:14.404Z,11.00
2018-04-14T05:13:42.367Z,11.10
2018-04-14T05:16:10.090Z,11.10
2018-04-14T05:18:37.088Z,11.10
2018-04-14T05:21:04.053Z,11.10
2018-04-14T05:23:31.032Z,11.10
2018-04-14T05:25:58.012Z,11.10
2018-04-14T05:28:24.992Z,11.10
2018-04-14T05:30:51.953Z,11.10
2018-04-14T05:33:19.701Z,11.20
2018-04-14T05:35:46.756Z,11.20
2018-04-14T05:38:14.102Z,11.20
2018-04-14T05:40:41.085Z,11.20
2018-04-14T05:43:08.121Z,11.20
2018-04-14T05:45:35.108Z,11.20
2018-04-14T05:48:02.157Z,11.20
2018-04-14T05:50:29.312Z,11.20
2018-04-14T05:52:56.286Z,11.30
2018-04-14T05:55:23.245Z,11.30
2018-04-14T05:57:50.267Z,11.30
2018-04-14T06:00:18.069Z,11.40
2018-04-14T06:02:45.089Z,11.40
2018-04-14T06:05:12.670Z,11.40
2018-04-14T06:07:39.671Z,11.50
2018-04-14T06:10:06.645Z,11.50
2018-04-14T06:12:33.659Z,11.50
2018-04-14T06:15:00.679Z,11.60
2018-04-14T06:17:27.597Z,11.60
2018-04-14T06:19:54.571Z,11.60
2018-04-14T06:22:21.626Z,11.60
2018-04-14T06:24:49.296Z,11.60
2018-04-14T06:27:16.281Z,11.60
2018-04-14T06:29:44.038Z,11.60
2018-04-14T06:32:11.784Z,11.60
2018-04-14T06:34:38.772Z,11.60
2018-04-14T06:37:06.507Z,11.70
2018-04-14T06:39:33.575Z,11.70
2018-04-14T06:42:00.603Z,11.70
2018-04-14T06:44:27.634Z,11.60
2018-04-14T06:46:55.373Z,11.50
2018-04-14T06:49:22.372Z,11.50
2018-04-14T06:51:50.138Z,11.50
2018-04-14T06:54:17.088Z,11.50
2018-04-14T06:56:44.079Z,11.50
2018-04-14T06:59:11.048Z,11.50
2018-04-14T07:01:38.083Z,11.50
2018-04-14T07:04:05.891Z,11.60
2018-04-14T07:06:32.874Z,11.60
2018-04-14T07:08:59.967Z,11.60
2018-04-14T07:11:26.917Z,11.60
2018-04-14T07:13:54.018Z,11.60
2018-04-14T07:16:21.724Z,11.60
2018-04-14T07:18:48.786Z,11.60
2018-04-14T07:21:15.924Z,11.60
2018-04-14T07:23:42.903Z,11.70
2018-04-14T07:26:10.549Z,11.80
2018-04-14T07:28:37.512Z,11.90
2018-04-14T07:31:04.496Z,12.00
2018-04-14T07:33:31.468Z,12.10
2018-04-14T07:35:58.466Z,12.20
2018-04-14T07:38:25.479Z,12.20
2018-04-14T07:40:52.465Z,12.20
2018-04-14T07:43:20.238Z,12.30
2018-04-14T07:45:47.194Z,12.30
2018-04-14T07:48:14.813Z,12.30
2018-04-14T07:50:41.806Z,12.40
2018-04-14T07:53:08.801Z,12.30
2018-04-14T07:55:36.523Z,12.40
2018-04-14T07:58:03.573Z,12.40
2018-04-14T08:00:30.545Z,12.50
2018-04-14T08:02:57.531Z,12.50
2018-04-14T08:05:25.437Z,12.60
2018-04-14T08:07:53.176Z,12.70
2018-04-14T08:10:20.199Z,12.70
2018-04-14T08:12:47.196Z,12.70
2018-04-14T08:15:14.159Z,12.80
2018-04-14T08:17:41.908Z,12.70
2018-04-14T08:20:08.869Z,12.70
2018-04-14T08:22:35.883Z,12.80
2018-04-14T08:25:02.861Z,12.80
2018-04-14T08:27:30.799Z,12.80
2018-04-14T08:29:58.547Z,12.90
2018-04-14T08:32:25.516Z,12.80
2018-04-14T08:34:53.268Z,13.00
2018-04-14T08:37:20.305Z,12.90
2018-04-14T08:39:48.001Z,12.90
2018-04-14T08:42:14.956Z,12.90
2018-04-14T08:44:41.953Z,12.90
2018-04-14T08:47:09.694Z,13.10
2018-04-14T08:49:36.682Z,13.10
2018-04-14T08:52:03.636Z,13.10
2018-04-14T08:54:30.788Z,13.20
2018-04-14T08:56:57.736Z,13.30
2018-04-14T08:59:24.869Z,13.50
2018-04-14T09:01:51.831Z,13.50
2018-04-14T09:04:18.840Z,13.50
2018-04-14T09:06:47.328Z,13.50
2018-04-14T09:09:15.076Z,13.40
2018-04-14T09:11:42.116Z,13.40
2018-04-14T09:14:09.076Z,13.40
2018-04-14T09:16:36.054Z,13.40
2018-04-14T09:19:03.032Z,13.30
2018-04-14T09:21:30.821Z,13.20
2018-04-14T09:23:58.580Z,13.20
2018-04-14T09:26:25.556Z,13.20
2018-04-14T09:28:53.287Z,13.50
2018-04-14T09:31:20.274Z,13.50
2018-04-14T09:33:47.247Z,13.60
2018-04-14T09:36:14.976Z,13.60
2018-04-14T09:38:41.951Z,13.60
2018-04-14T09:41:08.920Z,13.50
2018-04-14T09:43:36.707Z,13.60
2018-04-14T09:46:03.666Z,13.50
2018-04-14T09:48:31.428Z,13.50
2018-04-14T09:50:58.676Z,13.50
2018-04-14T09:53:25.685Z,13.40
2018-04-14T09:55:52.663Z,13.40
2018-04-14T09:58:19.707Z,13.30
2018-04-14T10:00:52.583Z,13.20
2018-04-14T10:03:23.170Z,13.20
2018-04-14T10:05:50.188Z,13.20
2018-04-14T10:08:18.107Z,13.30
2018-04-14T10:10:45.108Z,13.40
2018-04-14T10:13:12.124Z,13.50
2018-04-14T10:15:39.168Z,13.50
2018-04-14T10:18:06.149Z,13.70
2018-04-14T10:20:33.131Z,13.80
2018-04-14T10:23:00.125Z,13.60
2018-04-14T10:25:27.100Z,13.60
2018-04-14T10:27:54.102Z,13.60
2018-04-14T10:30:22.575Z,13.80
2018-04-14T10:32:49.550Z,13.80
2018-04-14T10:35:16.519Z,13.80
2018-04-14T10:37:44.478Z,14.00
2018-04-14T10:40:11.466Z,13.90
2018-04-14T10:42:38.433Z,14.10
2018-04-14T10:45:06.194Z,14.20
2018-04-14T10:47:33.260Z,14.20
2018-04-14T10:50:00.252Z,14.30
2018-04-14T10:52:27.230Z,14.20
2018-04-14T10:54:54.207Z,14.20
2018-04-14T10:57:21.177Z,14.20
2018-04-14T10:59:48.919Z,14.20
2018-04-14T11:02:15.914Z,14.20
2018-04-14T11:04:42.877Z,14.40
2018-04-14T11:07:09.854Z,14.60
2018-04-14T11:09:37.648Z,14.70
2018-04-14T11:12:05.541Z,14.70
2018-04-14T11:14:32.632Z,14.70
2018-04-14T11:16:59.636Z,14.80
2018-04-14T11:19:28.064Z,14.80
2018-04-14T11:21:55.112Z,14.70
2018-04-14T11:24:22.172Z,14.80
2018-04-14T11:26:50.267Z,14.80
2018-04-14T11:29:17.247Z,14.80
2018-04-14T11:31:44.235Z,14.70
2018-04-14T11:34:11.984Z,14.90
2018-04-14T11:36:38.982Z,14.90
2018-04-14T11:39:05.992Z,14.90
2018-04-14T11:41:33.134Z,15.10
2018-04-14T11:44:00.291Z,15.40
2018-04-14T11:46:27.276Z,15.50
2018-04-14T11:48:54.284Z,15.80
2018-04-14T11:51:22.047Z,16.10
2018-04-14T11:53:48.993Z,16.10
2018-04-14T11:56:16.748Z,15.80
2018-04-14T11:58:43.704Z,15.80
2018-04-14T12:01:10.674Z,15.90
2018-04-14T12:03:37.685Z,16.00
2018-04-14T12:06:04.642Z,16.40
2018-04-14T12:08:31.604Z,16.50
2018-04-14T12:11:00.151Z,16.80
2018-04-14T12:13:27.891Z,17.20
2018-04-14T12:15:54.919Z,17.20
2018-04-14T12:18:21.912Z,17.50
2018-04-14T12:20:48.956Z,17.50
2018-04-14T12:23:15.931Z,17.60
2018-04-14T12:25:42.904Z,18.40
2018-04-14T12:28:10.684Z,19.60
2018-04-14T12:30:37.658Z,19.50
2018-04-14T12:33:05.477Z,19.90
2018-04-14T12:35:32.455Z,19.80
2018-04-14T12:37:59.180Z,20.70
2018-04-14T12:40:26.155Z,21.40
2018-04-14T12:42:53.112Z,21.80
2018-04-14T12:45:20.108Z,21.70
2018-04-14T12:47:47.926Z,23.40
2018-04-14T12:50:14.895Z,23.40
2018-04-14T12:52:41.940Z,23.50
2018-04-14T12:55:09.656Z,21.80
2018-04-14T12:57:36.649Z,21.80
2018-04-14T13:00:04.476Z,23.10
2018-04-14T13:02:31.462Z,23.10
2018-04-14T13:04:58.469Z,24.30
2018-04-14T13:07:25.435Z,24.70
2018-04-14T13:09:52.409Z,24.90
2018-04-14T13:12:19.402Z,25.00
2018-04-14T13:14:47.139Z,26.40
2018-04-14T13:17:14.163Z,26.30
2018-04-14T13:19:41.179Z,26.20
2018-04-14T13:22:08.179Z,25.70
2018-04-14T13:24:35.147Z,25.10
2018-04-14T13:27:02.118Z,24.90
2018-04-14T13:29:29.158Z,24.10
2018-04-14T13:31:56.946Z,24.30
2018-04-14T13:34:24.027Z,24.30
2018-04-14T13:36:51.025Z,23.60
2018-04-14T13:39:18.005Z,23.50
2018-04-14T13:41:45.733Z,24.70
2018-04-14T13:44:12.696Z,24.70
2018-04-14T13:46:39.696Z,25.60
2018-04-14T13:49:06.679Z,25.30
2018-04-14T13:51:33.651Z,25.00
2018-04-14T13:54:00.669Z,25.00
2018-04-14T13:56:28.407Z,25.60
2018-04-14T13:58:55.367Z,25.60
2018-04-14T14:01:22.804Z,25.70
2018-04-14T14:03:49.767Z,25.60
2018-04-14T14:06:16.821Z,25.90
2018-04-14T14:08:43.963Z,25.80
2018-04-14T14:11:10.935Z,26.20
2018-04-14T14:13:37.968Z,27.10
2018-04-14T14:16:04.920Z,27.70
2018-04-14T14:18:31.904Z,27.90
2018-04-14T14:20:59.001Z,28.30
2018-04-14T14:23:25.976Z,28.50
2018-04-14T14:25:53.812Z,29.10
2018-04-14T14:28:20.856Z,29.10
2018-04-14T14:30:47.845Z,30.40
2018-04-14T14:33:14.884Z,30.80
2018-04-14T14:35:41.862Z,31.90
2018-04-14T14:38:08.827Z,32.40
2018-04-14T14:40:35.821Z,32.50
2018-04-14T14:43:03.616Z,32.40
2018-04-14T14:45:30.602Z,32.40
2018-04-14T14:47:57.576Z,32.60
2018-04-14T14:50:28.488Z,31.50
2018-04-14T14:52:55.481Z,32.60
2018-04-14T14:55:22.477Z,31.00
2018-04-14T14:57:49.479Z,30.10
2018-04-14T15:00:16.475Z,30.60
2018-04-14T15:02:44.216Z,29.70
2018-04-14T15:05:11.204Z,29.70
2018-04-14T15:07:39.058Z,32.40
2018-04-14T15:10:06.105Z,32.30
2018-04-14T15:12:33.244Z,31.90
2018-04-14T15:15:00.399Z,32.20
2018-04-14T15:17:27.518Z,32.50
2018-04-14T15:19:54.437Z,31.90
2018-04-14T15:22:21.409Z,31.20
2018-04-14T15:24:48.458Z,31.30
2018-04-14T15:27:15.504Z,30.70
2018-04-14T15:29:42.468Z,30.50
2018-04-14T15:32:09.440Z,30.30
2018-04-14T15:34:36.438Z,29.70
2018-04-14T15:37:03.487Z,29.40
2018-04-14T15:39:31.233Z,28.20
2018-04-14T15:41:58.204Z,28.20
2018-04-14T15:44:25.215Z,27.90
2018-04-14T15:46:52.241Z,27.70
2018-04-14T15:49:19.175Z,27.50
2018-04-14T15:51:46.155Z,27.50
2018-04-14T15:54:13.988Z,26.80
2018-04-14T15:56:41.027Z,26.80
2018-04-14T15:59:08.113Z,26.40
2018-04-14T16:01:35.091Z,26.60
2018-04-14T16:04:09.657Z,27.20
2018-04-14T16:06:29.069Z,27.10
2018-04-14T16:08:56.039Z,27.10
2018-04-14T16:11:23.088Z,26.50
2018-04-14T16:13:50.056Z,26.90
2018-04-14T16:16:17.042Z,26.60
2018-04-14T16:18:44.032Z,26.20
2018-04-14T16:21:10.996Z,26.20
2018-04-14T16:23:38.003Z,26.10
2018-04-14T16:26:04.962Z,25.70
2018-04-14T16:28:32.025Z,25.10
2018-04-14T16:30:59.068Z,24.80
2018-04-14T16:33:26.120Z,24.90
2018-04-14T16:35:53.091Z,24.40
2018-04-14T16:38:20.062Z,24.50
2018-04-14T16:40:47.054Z,24.40
2018-04-14T16:43:14.017Z,23.40
2018-04-14T16:45:40.996Z,22.40
2018-04-14T16:48:07.968Z,21.90
2018-04-14T16:50:34.935Z,21.20
2018-04-14T16:53:01.984Z,21.00
2018-04-14T16:55:29.114Z,20.70
2018-04-14T16:57:56.833Z,20.10
2018-04-14T17:00:23.809Z,20.00
2018-04-14T17:02:50.824Z,19.30
2018-04-14T17:05:17.800Z,19.30
2018-04-14T17:07:44.780Z,19.40
2018-04-14T17:10:11.787Z,19.10
2018-04-14T17:12:38.761Z,18.80
2018-04-14T17:15:05.736Z,18.50
2018-04-14T17:17:32.795Z,18.20
2018-04-14T17:19:59.820Z,17.60
2018-04-14T17:22:26.797Z,17.00
2018-04-14T17:24:53.773Z,16.60
2018-04-14T17:27:20.842Z,16.60
2018-04-14T17:29:47.812Z,16.40
2018-04-14T17:32:14.786Z,16.10
2018-04-14T17:34:41.776Z,16.00
2018-04-14T17:37:08.741Z,15.70
2018-04-14T17:39:35.709Z,15.30
2018-04-14T17:42:02.690Z,15.00
2018-04-14T17:44:29.656Z,14.60
2018-04-14T17:46:57.391Z,14.60
2018-04-14T17:49:24.368Z,14.50
2018-04-14T17:51:51.389Z,14.60
2018-04-14T17:54:18.360Z,14.50
2018-04-14T17:56:45.325Z,14.60
2018-04-14T17:59:12.292Z,14.50
2018-04-14T18:01:39.278Z,14.40
2018-04-14T18:04:07.036Z,14.30
2018-04-14T18:06:34.008Z,14.30
2018-04-14T18:09:01.772Z,14.20
2018-04-14T18:11:28.731Z,14.20
2018-04-14T18:13:56.464Z,14.10
2018-04-14T18:16:23.455Z,14.00
2018-04-14T18:18:50.481Z,14.00
2018-04-14T18:21:17.476Z,14.00
2018-04-14T18:23:44.508Z,13.90
2018-04-14T18:26:11.486Z,13.70
2018-04-14T18:28:38.456Z,13.70
2018-04-14T18:31:05.487Z,13.70
2018-04-14T18:33:32.443Z,13.60
2018-04-14T18:35:59.421Z,13.60
2018-04-14T18:38:27.037Z,13.60
2018-04-14T18:40:54.841Z,13.50
2018-04-14T18:43:21.889Z,13.40
2018-04-14T18:45:49.036Z,13.30
2018-04-14T18:48:16.758Z,13.20
2018-04-14T18:50:44.492Z,13.10
2018-04-14T18:53:11.461Z,13.10
2018-04-14T18:55:38.449Z,13.20
2018-04-14T18:58:05.455Z,13.10
2018-04-14T19:00:32.480Z,13.10
2018-04-14T19:02:59.488Z,13.10
2018-04-14T19:05:27.296Z,13.10
2018-04-14T19:07:54.367Z,13.10
2018-04-14T19:10:21.390Z,13.10
2018-04-14T19:12:48.352Z,13.00
2018-04-14T19:15:15.338Z,13.00
2018-04-14T19:17:42.287Z,13.00
2018-04-14T19:20:09.255Z,12.90
2018-04-14T19:22:36.283Z,12.90
2018-04-14T19:25:03.262Z,12.80
2018-04-14T19:27:30.257Z,12.80
2018-04-14T19:29:57.880Z,12.80
2018-04-14T19:32:24.949Z,12.80
2018-04-14T19:34:51.896Z,12.70
2018-04-14T19:37:18.981Z,12.70
2018-04-14T19:39:45.979Z,12.60
2018-04-14T19:42:12.972Z,12.60
2018-04-14T19:44:40.020Z,12.60
2018-04-14T19:47:07.000Z,12.60
2018-04-14T19:49:33.971Z,12.50
2018-04-14T19:52:01.014Z,12.50
2018-04-14T19:54:28.204Z,12.50
2018-04-14T19:56:55.166Z,12.60
2018-04-14T19:59:22.180Z,12.60
2018-04-14T20:01:49.176Z,12.60
2018-04-14T20:04:16.147Z,12.60
2018-04-14T20:06:43.885Z,12.60
2018-04-14T20:09:10.857Z,12.60
2018-04-14T20:11:37.845Z,12.60
2018-04-14T20:14:05.608Z,12.50
2018-04-14T20:16:32.632Z,12.50
2018-04-14T20:18:59.621Z,12.50
2018-04-14T20:21:26.636Z,12.50
2018-04-14T20:23:53.629Z,12.30
2018-04-14T20:26:20.617Z,12.20
2018-04-14T20:28:48.418Z,12.10
2018-04-14T20:31:15.485Z,12.00
2018-04-14T20:33:42.463Z,12.00
2018-04-14T20:36:10.223Z,11.90
2018-04-14T20:38:37.186Z,11.90
2018-04-14T20:41:04.244Z,11.80
2018-04-14T20:43:31.207Z,11.70
2018-04-14T20:45:58.977Z,11.70
2018-04-14T20:48:25.958Z,11.70
2018-04-14T20:50:52.932Z,11.70
2018-04-14T20:53:20.684Z,11.70
2018-04-14T20:55:47.733Z,11.60
2018-04-14T20:58:14.706Z,11.70
2018-04-14T21:00:41.679Z,11.60
2018-04-14T21:03:09.420Z,11.50
2018-04-14T21:05:36.400Z,11.50
2018-04-14T21:08:03.408Z,11.50
2018-04-14T21:10:30.376Z,11.50
2018-04-14T21:12:57.351Z,11.40
2018-04-14T21:15:24.340Z,11.40
2018-04-14T21:17:52.169Z,11.50
2018-04-14T21:20:19.248Z,11.50
2018-04-14T21:22:46.220Z,11.60
2018-04-14T21:25:13.245Z,11.60
2018-04-14T21:27:40.243Z,11.60
2018-04-14T21:30:07.225Z,11.50
2018-04-14T21:32:34.967Z,11.40
2018-04-14T21:35:01.974Z,11.30
2018-04-14T21:37:30.518Z,11.40
2018-04-14T21:39:57.469Z,11.30
2018-04-14T21:42:24.441Z,11.40
2018-04-14T21:44:51.558Z,11.40
2018-04-14T21:47:19.311Z,11.30
2018-04-14T21:49:47.143Z,11.20
2018-04-14T21:52:14.212Z,11.20
2018-04-14T21:54:41.188Z,11.20
2018-04-14T21:57:08.204Z,11.10
2018-04-14T21:59:35.241Z,11.10
2018-04-14T22:02:03.015Z,11.20
2018-04-14T22:04:31.036Z,11.20
2018-04-14T22:06:58.048Z,11.10
2018-04-14T22:09:25.044Z,11.10
2018-04-14T22:11:52.056Z,11.10
2018-04-14T22:14:25.582Z,11.10
2018-04-14T22:16:53.395Z,11.10
2018-04-14T22:19:20.413Z,11.10
2018-04-14T22:21:48.164Z,11.20
2018-04-14T22:24:15.111Z,11.10
2018-04-14T22:26:42.188Z,11.20
2018-04-14T22:29:09.977Z,11.10
2018-04-14T22:31:37.823Z,11.20
2018-04-14T22:34:04.791Z,11.20
2018-04-14T22:36:31.756Z,11.20
2018-04-14T22:38:59.500Z,11.00
2018-04-14T22:41:26.456Z,11.00
2018-04-14T22:43:53.430Z,10.90
2018-04-14T22:46:20.395Z,10.90
2018-04-14T22:48:47.408Z,11.00
2018-04-14T22:51:14.380Z,11.00
2018-04-14T22:53:41.344Z,10.90
2018-04-14T22:56:08.387Z,10.90
2018-04-14T22:58:35.361Z,11.00
2018-04-14T23:01:02.332Z,11.10
2018-04-14T23:03:29.313Z,11.10
2018-04-14T23:05:57.048Z,11.20
2018-04-14T23:08:24.031Z,11.20
2018-04-14T23:10:51.017Z,11.10
2018-04-14T23:13:17.992Z,11.00
2018-04-14T23:15:45.008Z,10.90
2018-04-14T23:18:12.005Z,10.90
2018-04-14T23:20:38.978Z,10.80
2018-04-14T23:23:05.968Z,10.80
2018-04-14T23:25:32.946Z,10.80
2018-04-14T23:27:59.906Z,10.80
2018-04-14T23:30:27.829Z,10.80
2018-04-14T23:32:54.806Z,10.80
2018-04-14T23:35:21.779Z,10.80
2018-04-14T23:37:48.815Z,10.80
2018-04-14T23:40:15.789Z,10.70
2018-04-14T23:42:42.808Z,10.70
2018-04-14T23:45:09.783Z,10.70
2018-04-14T23:47:36.755Z,10.60
2018-04-14T23:50:03.738Z,10.60
2018-04-14T23:52:30.718Z,10.60
2018-04-14T23:54:57.690Z,10.50
2018-04-14T23:57:24.651Z,10.50
2018-04-14T23:59:51.617Z,10.60
